Terminal Aerodrome Forecast
Issued by NWS

Home | Current Version | Previous Version | Text Only | Print | Product List | Glossary On
Versions: 1 2 3 4 5 6 7 8 9 10 11 12
000
FTUS42 TJSJ 290500 RRA
TAFIST
TAF
TIST 290539Z 2906/3006 09011KT P6SM VCSH FEW025 SCT040
     FM291430 13012G19KT P6SM SCT030
     FM292300 09009KT P6SM FEW030=

USA.gov is the U.S. government's official web portal to all federal, state and local government web resources and services.